Time;durP1;ratioP1;P1;durP2;ratioP2;P2;SDS_P1;SDS_P2;PMS_P1;PMS_P2;Temp;Humidity;BMP_temperature;BMP_pressure;BME280_temperature;BME280_humidity;BME280_pressure;Samples;Min_cycle;Max_cycle;Signal;HPM_P1;HPM_P2
2023/01/30 00:01:47;;;;;;;17.80;15.55;;;2.10;99.90;;;;;;5012085;28;20770;-82
2023/01/30 00:04:13;;;;;;;18.90;16.80;;;2.10;99.90;;;;;;5012592;28;20423;-79
2023/01/30 00:06:41;;;;;;;20.47;17.10;;;2.10;99.90;;;;;;5009416;28;20443;-81
2023/01/30 00:09:09;;;;;;;19.02;16.92;;;2.30;99.90;;;;;;5012797;28;20996;-81
2023/01/30 00:11:35;;;;;;;19.25;17.10;;;2.10;99.90;;;;;;5006666;28;20389;-79
2023/01/30 00:14:01;;;;;;;19.25;17.20;;;2.10;99.90;;;;;;5011970;28;20493;-81
2023/01/30 00:16:26;;;;;;;20.88;17.73;;;1.90;99.90;;;;;;5013088;28;20418;-82
2023/01/30 00:18:52;;;;;;;20.98;18.05;;;2.10;99.90;;;;;;5012600;28;20711;-79
2023/01/30 00:21:18;;;;;;;21.50;18.17;;;2.10;99.90;;;;;;5013075;28;20797;-82
2023/01/30 00:23:44;;;;;;;20.45;18.10;;;1.90;99.90;;;;;;5013789;28;20403;-79
2023/01/30 00:26:11;;;;;;;21.17;18.88;;;2.00;99.90;;;;;;5011087;28;20391;-80
2023/01/30 00:28:38;;;;;;;22.98;19.65;;;1.90;99.90;;;;;;5007892;28;20454;-81
2023/01/30 00:31:04;;;;;;;21.83;19.38;;;1.90;99.90;;;;;;5011993;28;20396;-79
2023/01/30 00:33:30;;;;;;;21.50;18.60;;;2.00;99.90;;;;;;5011918;28;20414;-78
2023/01/30 00:35:56;;;;;;;22.73;19.65;;;2.10;99.90;;;;;;5011560;28;20402;-81
2023/01/30 00:38:23;;;;;;;24.23;20.50;;;2.00;99.90;;;;;;5012666;28;20462;-81
2023/01/30 00:40:49;;;;;;;23.27;20.75;;;2.00;99.90;;;;;;5011825;28;20438;-81
2023/01/30 00:48:58;;;;;;;22.23;19.83;;;2.20;99.90;;;;;;5011527;28;20481;-81
2023/01/30 00:51:23;;;;;;;24.17;20.20;;;1.90;99.90;;;;;;5016377;28;20438;-82
2023/01/30 00:53:49;;;;;;;23.70;20.45;;;1.90;99.90;;;;;;5018984;28;20441;-80
2023/01/30 00:56:15;;;;;;;24.63;20.93;;;2.00;99.90;;;;;;5015112;28;20421;-81
2023/01/30 00:58:40;;;;;;;25.10;21.43;;;2.10;99.90;;;;;;5018708;28;20450;-80
2023/01/30 01:01:06;;;;;;;24.17;20.30;;;2.00;99.90;;;;;;5274034;23;21113;-81
2023/01/30 01:03:32;;;;;;;23.40;20.27;;;1.90;99.90;;;;;;5012975;28;20888;-81
2023/01/30 01:05:57;;;;;;;23.92;20.60;;;2.00;99.90;;;;;;5012502;28;20476;-79
2023/01/30 01:08:23;;;;;;;25.05;21.08;;;2.30;99.90;;;;;;5014814;28;20434;-80
2023/01/30 01:10:49;;;;;;;24.37;20.77;;;2.20;99.90;;;;;;5013633;28;20406;-81
2023/01/30 01:13:14;;;;;;;23.87;20.70;;;2.00;99.90;;;;;;5001266;28;20450;-81
2023/01/30 01:15:40;;;;;;;24.17;20.52;;;2.10;99.90;;;;;;4996531;28;20416;-81
2023/01/30 01:18:06;;;;;;;24.48;20.83;;;1.90;99.90;;;;;;5012889;28;20383;-81
2023/01/30 01:20:31;;;;;;;24.77;22.02;;;2.00;99.90;;;;;;5010710;28;20403;-81
2023/01/30 01:22:57;;;;;;;24.27;21.65;;;2.00;99.90;;;;;;5014831;28;20405;-80
2023/01/30 01:25:23;;;;;;;24.77;21.97;;;2.10;99.90;;;;;;5014910;28;20466;-79
2023/01/30 01:27:49;;;;;;;27.55;21.63;;;2.00;99.90;;;;;;5015921;28;20419;-80
2023/01/30 01:30:16;;;;;;;24.00;20.95;;;2.50;99.90;;;;;;5017007;28;20438;-81
2023/01/30 01:32:41;;;;;;;24.83;21.02;;;2.10;99.90;;;;;;5014531;28;20449;-80
2023/01/30 01:35:07;;;;;;;25.67;22.47;;;2.20;99.90;;;;;;4999323;28;20408;-79
2023/01/30 01:37:33;;;;;;;26.85;22.02;;;2.20;99.90;;;;;;5007201;28;20401;-80
2023/01/30 01:42:43;;;;;;;25.67;21.13;;;2.10;99.90;;;;;;4995647;28;20428;-79
2023/01/30 01:45:14;;;;;;;25.77;21.77;;;2.00;99.90;;;;;;4996866;28;20385;-80
2023/01/30 01:47:46;;;;;;;26.00;21.85;;;2.30;99.90;;;;;;4996192;28;20871;-84
2023/01/30 01:50:23;;;;;;;28.25;22.27;;;2.00;99.90;;;;;;5009822;28;20383;-81
2023/01/30 01:52:53;;;;;;;28.87;23.73;;;2.00;99.90;;;;;;5005474;28;20895;-82
2023/01/30 01:55:21;;;;;;;29.35;23.42;;;2.00;99.90;;;;;;5006994;28;20413;-81
2023/01/30 01:57:57;;;;;;;32.17;24.52;;;1.90;99.90;;;;;;5013063;28;20854;-80
2023/01/30 02:00:24;;;;;;;30.35;24.75;;;1.90;99.90;;;;;;5011662;28;20402;-80
2023/01/30 02:02:57;;;;;;;31.27;25.98;;;1.80;99.90;;;;;;5010458;28;20469;-82
2023/01/30 02:05:25;;;;;;;32.85;26.35;;;1.80;99.90;;;;;;5013313;28;20407;-81
2023/01/30 02:08:03;;;;;;;35.72;27.75;;;1.70;99.90;;;;;;5014237;28;20414;-79
2023/01/30 02:11:02;;;;;;;36.72;28.50;;;2.20;99.90;;;;;;5013567;28;21095;-80
2023/01/30 02:13:28;;;;;;;35.97;28.70;;;1.60;99.90;;;;;;5011003;28;20773;-81
2023/01/30 02:15:57;;;;;;;38.60;30.42;;;1.70;99.90;;;;;;4998482;28;20376;-81
2023/01/30 02:18:23;;;;;;;42.53;30.93;;;1.70;99.90;;;;;;4993766;28;21085;-81
2023/01/30 02:20:49;;;;;;;40.60;32.22;;;1.60;99.90;;;;;;5014144;28;20379;-81
2023/01/30 02:23:20;;;;;;;45.05;32.53;;;1.60;99.90;;;;;;5013021;28;20790;-80
2023/01/30 02:25:58;;;;;;;45.75;33.38;;;1.50;99.90;;;;;;5012784;28;20395;-81
2023/01/30 02:28:38;;;;;;;46.30;35.05;;;1.50;99.90;;;;;;4994940;28;20381;-81
2023/01/30 02:31:10;;;;;;;47.35;34.92;;;1.60;99.90;;;;;;4999243;28;20391;-82
2023/01/30 02:33:40;;;;;;;49.13;35.67;;;1.50;99.90;;;;;;5011397;28;20865;-81
2023/01/30 02:36:18;;;;;;;46.67;34.83;;;1.50;99.90;;;;;;5014139;28;20403;-79
2023/01/30 02:39:19;;;;;;;47.63;35.63;;;1.50;99.90;;;;;;5012378;28;20399;-81
2023/01/30 02:42:03;;;;;;;47.25;34.65;;;1.60;99.90;;;;;;5003529;28;20490;-81
2023/01/30 02:44:49;;;;;;;45.37;34.13;;;1.50;99.90;;;;;;5012186;28;20623;-82
2023/01/30 02:47:22;;;;;;;47.55;34.33;;;1.40;99.90;;;;;;5011453;28;20885;-82
2023/01/30 02:49:55;;;;;;;45.65;34.30;;;1.50;99.90;;;;;;5012047;28;20394;-80
2023/01/30 02:52:22;;;;;;;43.08;33.22;;;1.60;99.90;;;;;;5013559;28;20384;-81
2023/01/30 02:54:47;;;;;;;44.15;33.67;;;1.70;99.90;;;;;;5012145;28;20946;-81
2023/01/30 02:57:22;;;;;;;44.00;32.90;;;1.60;99.90;;;;;;5011418;28;20493;-81
2023/01/30 02:59:54;;;;;;;39.45;30.27;;;1.80;99.90;;;;;;5011941;28;20394;-81
2023/01/30 03:02:22;;;;;;;39.17;31.67;;;1.80;99.90;;;;;;5012385;28;20422;-80
2023/01/30 03:05:12;;;;;;;39.30;30.15;;;1.80;99.90;;;;;;5012180;28;20403;-80
2023/01/30 03:08:12;;;;;;;36.55;29.00;;;1.80;99.90;;;;;;5011235;28;20925;-80
2023/01/30 03:11:07;;;;;;;35.65;28.05;;;1.90;99.90;;;;;;5011648;28;20399;-81
2023/01/30 03:14:23;;;;;;;35.67;27.48;;;2.00;99.90;;;;;;5009008;28;20491;-81
2023/01/30 03:16:51;;;;;;;37.67;28.00;;;2.00;99.90;;;;;;4930205;29;20425;-81
2023/01/30 03:19:18;;;;;;;34.65;27.42;;;2.20;99.90;;;;;;4992871;28;20406;-81
2023/01/30 03:21:44;;;;;;;33.28;27.40;;;2.00;99.90;;;;;;5012408;28;20384;-81
2023/01/30 03:24:11;;;;;;;33.35;26.38;;;2.10;99.90;;;;;;5011929;28;20410;-81
2023/01/30 03:26:43;;;;;;;34.05;26.52;;;2.10;99.90;;;;;;5010348;28;20498;-81
2023/01/30 03:29:09;;;;;;;33.38;26.05;;;2.10;99.90;;;;;;5010602;28;21259;-81
2023/01/30 03:31:34;;;;;;;31.63;26.57;;;2.40;99.90;;;;;;5012023;28;20606;-80
2023/01/30 03:34:00;;;;;;;31.15;25.85;;;2.00;99.90;;;;;;5011497;28;20504;-81
2023/01/30 03:36:26;;;;;;;31.83;25.58;;;2.30;99.90;;;;;;5011637;28;20430;-82
2023/01/30 03:38:52;;;;;;;33.30;27.45;;;2.30;99.90;;;;;;5008464;28;20414;-81
2023/01/30 03:41:17;;;;;;;32.25;26.48;;;2.20;99.90;;;;;;5010569;28;20406;-80
2023/01/30 03:43:43;;;;;;;33.23;26.20;;;2.20;99.90;;;;;;5010157;28;20486;-80
2023/01/30 03:46:09;;;;;;;33.03;27.10;;;2.30;99.90;;;;;;5008930;28;20399;-80
2023/01/30 03:48:35;;;;;;;36.27;27.97;;;2.30;99.90;;;;;;5008853;28;20488;-81
2023/01/30 03:51:00;;;;;;;33.10;27.47;;;2.20;99.90;;;;;;5010742;28;20403;-81
2023/01/30 03:53:27;;;;;;;32.70;26.33;;;2.10;99.90;;;;;;5009305;28;20407;-82
2023/01/30 03:55:53;;;;;;;33.80;26.88;;;2.30;99.90;;;;;;5010720;28;20421;-81
2023/01/30 03:58:18;;;;;;;33.45;25.60;;;2.20;99.90;;;;;;5024380;28;20905;-81
2023/01/30 04:00:44;;;;;;;35.33;26.92;;;2.30;99.90;;;;;;5010808;28;20402;-81
2023/01/30 04:03:10;;;;;;;33.27;25.73;;;2.40;99.90;;;;;;5012607;28;20395;-84
2023/01/30 04:05:35;;;;;;;31.40;25.17;;;2.50;99.90;;;;;;5010261;28;20775;-82
2023/01/30 04:08:01;;;;;;;31.70;26.00;;;2.40;99.90;;;;;;5010602;28;20395;-83
2023/01/30 04:10:27;;;;;;;32.08;25.48;;;2.70;99.90;;;;;;5008746;28;20419;-81
2023/01/30 04:12:53;;;;;;;31.63;24.88;;;2.50;99.90;;;;;;5006742;28;20423;-82
2023/01/30 04:15:18;;;;;;;30.65;25.08;;;2.40;99.90;;;;;;4999294;28;20403;-82
2023/01/30 04:17:46;;;;;;;29.27;23.83;;;2.50;99.90;;;;;;5004012;28;20391;-83
2023/01/30 04:20:12;;;;;;;29.90;24.00;;;2.30;99.90;;;;;;4990065;28;20452;-84
2023/01/30 04:22:38;;;;;;;30.43;24.80;;;2.50;99.90;;;;;;5008524;28;20409;-81
2023/01/30 04:25:03;;;;;;;29.20;24.20;;;2.50;99.90;;;;;;5010103;28;20403;-82
2023/01/30 04:27:29;;;;;;;30.67;24.17;;;2.50;99.90;;;;;;5009536;28;20862;-81
2023/01/30 04:29:55;;;;;;;30.33;24.47;;;2.50;99.90;;;;;;5009923;28;20411;-81
2023/01/30 04:32:20;;;;;;;30.50;25.00;;;2.70;99.90;;;;;;5009182;28;20934;-84
2023/01/30 04:34:46;;;;;;;29.30;24.75;;;2.40;99.90;;;;;;5024551;28;20450;-82
2023/01/30 04:37:12;;;;;;;33.30;25.55;;;2.40;99.90;;;;;;5008633;28;20422;-83
2023/01/30 04:39:38;;;;;;;34.72;26.15;;;2.40;99.90;;;;;;5009038;28;20391;-83
2023/01/30 04:42:04;;;;;;;33.45;26.58;;;2.40;99.90;;;;;;5009336;28;20355;-81
2023/01/30 04:44:29;;;;;;;33.38;26.38;;;2.40;99.90;;;;;;4996820;28;20399;-80
2023/01/30 04:46:55;;;;;;;35.10;26.92;;;2.60;99.90;;;;;;5009800;28;20418;-81
2023/01/30 04:49:21;;;;;;;33.45;27.10;;;2.50;99.90;;;;;;5010922;28;20379;-83
2023/01/30 04:51:47;;;;;;;35.50;27.30;;;2.10;99.90;;;;;;5014371;28;20375;-81
2023/01/30 04:54:12;;;;;;;35.90;27.77;;;2.40;99.90;;;;;;5031115;28;20742;-81
2023/01/30 04:56:38;;;;;;;35.57;28.90;;;2.80;99.90;;;;;;5008002;28;20439;-82
2023/01/30 04:59:04;;;;;;;40.13;30.73;;;2.40;99.90;;;;;;4995824;28;20476;-82
2023/01/30 05:01:31;;;;;;;40.60;30.07;;;2.50;99.90;;;;;;5015108;28;20394;-82
2023/01/30 05:03:57;;;;;;;42.75;31.00;;;2.50;99.90;;;;;;5015872;28;20389;-80
2023/01/30 05:06:23;;;;;;;41.38;31.63;;;2.50;99.90;;;;;;5015709;28;20454;-82
2023/01/30 05:08:53;;;;;;;40.43;30.77;;;2.60;99.90;;;;;;5012373;28;20901;-80
2023/01/30 05:11:20;;;;;;;43.30;33.35;;;2.50;99.90;;;;;;5001546;28;20931;-82
2023/01/30 05:13:46;;;;;;;42.63;33.13;;;2.60;99.90;;;;;;5004697;28;20407;-80
2023/01/30 05:16:13;;;;;;;43.10;31.83;;;2.80;99.90;;;;;;4996365;28;20402;-83
2023/01/30 05:18:39;;;;;;;47.30;34.05;;;2.60;99.90;;;;;;5012222;28;20395;-81
2023/01/30 05:21:11;;;;;;;46.70;33.60;;;2.60;99.90;;;;;;5010263;28;21213;-81
2023/01/30 05:23:36;;;;;;;45.67;33.97;;;2.70;99.90;;;;;;5014345;28;20450;-81
2023/01/30 05:26:03;;;;;;;45.93;33.67;;;2.80;99.90;;;;;;5014369;28;20486;-81
2023/01/30 05:28:29;;;;;;;43.70;33.17;;;2.70;99.90;;;;;;5012484;28;20877;-81
2023/01/30 05:31:06;;;;;;;42.63;32.80;;;2.80;99.90;;;;;;5007889;28;20434;-82
2023/01/30 05:33:32;;;;;;;43.38;32.45;;;2.90;99.90;;;;;;5009314;28;20407;-80
2023/01/30 05:35:58;;;;;;;42.17;33.05;;;2.90;99.90;;;;;;5011034;28;20401;-80
2023/01/30 05:38:25;;;;;;;42.83;33.15;;;2.80;99.90;;;;;;5011989;28;20402;-82
2023/01/30 05:41:04;;;;;;;42.78;33.30;;;3.20;99.90;;;;;;5011932;28;20398;-80
2023/01/30 05:43:30;;;;;;;46.75;33.88;;;3.00;99.90;;;;;;5012216;28;20987;-81
2023/01/30 05:45:58;;;;;;;43.70;32.63;;;3.20;99.90;;;;;;5012968;28;20403;-82
2023/01/30 05:48:24;;;;;;;42.03;32.40;;;3.10;99.90;;;;;;5014676;28;20379;-82
2023/01/30 05:50:51;;;;;;;45.15;32.53;;;3.20;99.90;;;;;;5014584;28;20793;-83
2023/01/30 05:53:17;;;;;;;40.78;31.63;;;3.20;99.90;;;;;;5015860;28;20421;-81
2023/01/30 05:55:43;;;;;;;40.75;30.73;;;3.40;99.90;;;;;;5013802;28;20437;-82
2023/01/30 05:58:10;;;;;;;38.83;29.93;;;3.40;99.90;;;;;;5014095;28;20470;-81
2023/01/30 06:00:35;;;;;;;37.83;28.27;;;3.40;99.90;;;;;;5012152;28;20521;-81
2023/01/30 06:03:01;;;;;;;36.47;28.20;;;3.50;99.90;;;;;;5013224;28;20399;-82
2023/01/30 06:05:27;;;;;;;33.25;27.15;;;3.50;99.90;;;;;;5014360;28;20426;-81
2023/01/30 06:07:52;;;;;;;36.08;27.15;;;3.70;99.90;;;;;;5017884;28;20395;-81
2023/01/30 06:10:18;;;;;;;34.20;27.17;;;3.50;99.90;;;;;;5018854;28;20399;-81
2023/01/30 06:12:44;;;;;;;32.30;25.83;;;3.60;99.90;;;;;;5015103;28;20806;-81
2023/01/30 06:15:10;;;;;;;32.20;25.47;;;3.80;99.90;;;;;;5009496;28;20495;-79
2023/01/30 06:17:36;;;;;;;31.52;25.13;;;3.70;99.90;;;;;;5000917;28;20889;-80
2023/01/30 06:20:01;;;;;;;30.57;25.03;;;3.70;99.90;;;;;;4998244;28;20462;-81
2023/01/30 06:22:27;;;;;;;29.50;23.63;;;3.70;99.90;;;;;;5018804;28;20383;-83
2023/01/30 06:24:53;;;;;;;25.47;22.13;;;3.80;99.90;;;;;;5025580;28;20388;-80
2023/01/30 06:27:18;;;;;;;27.40;21.67;;;3.70;99.90;;;;;;4996261;28;20473;-82
2023/01/30 06:29:44;;;;;;;23.23;20.17;;;3.70;99.90;;;;;;4993445;28;20407;-82
2023/01/30 06:32:10;;;;;;;26.63;20.88;;;3.90;99.90;;;;;;4997302;28;20387;-82
2023/01/30 06:34:36;;;;;;;24.80;19.92;;;3.90;99.90;;;;;;5013734;28;20414;-82
2023/01/30 06:37:02;;;;;;;23.45;20.30;;;3.90;99.90;;;;;;5013611;28;20434;-82
2023/01/30 06:39:27;;;;;;;23.63;19.77;;;3.90;99.90;;;;;;5013391;28;20739;-83
2023/01/30 06:41:53;;;;;;;20.97;18.43;;;3.90;99.90;;;;;;5007446;28;20472;-81
2023/01/30 06:44:18;;;;;;;22.50;18.67;;;4.00;99.90;;;;;;4994049;28;20384;-83
2023/01/30 06:46:44;;;;;;;20.83;17.65;;;4.10;99.90;;;;;;4992762;28;20377;-84
2023/01/30 06:49:10;;;;;;;20.27;18.02;;;4.10;99.90;;;;;;5003118;28;20414;-84
2023/01/30 06:51:35;;;;;;;17.63;15.73;;;4.10;99.90;;;;;;5010855;28;20403;-83
2023/01/30 06:54:01;;;;;;;19.10;16.97;;;4.10;99.90;;;;;;5010519;28;20488;-81
2023/01/30 06:56:27;;;;;;;18.65;16.45;;;4.30;99.90;;;;;;5010522;28;20457;-83
2023/01/30 06:58:52;;;;;;;18.55;16.30;;;4.10;99.90;;;;;;5011452;28;20375;-81
2023/01/30 07:01:20;;;;;;;18.13;16.25;;;4.20;99.90;;;;;;5010084;28;20982;-81
2023/01/30 07:03:46;;;;;;;19.33;16.85;;;4.10;99.90;;;;;;5011052;28;20418;-82
2023/01/30 07:06:11;;;;;;;21.33;18.40;;;4.20;99.90;;;;;;5010430;28;21225;-83
2023/01/30 07:08:37;;;;;;;21.00;17.70;;;4.10;99.90;;;;;;5011064;28;20397;-82
2023/01/30 07:11:04;;;;;;;20.88;17.13;;;4.10;99.90;;;;;;5011543;28;20433;-81
2023/01/30 07:13:29;;;;;;;21.85;18.63;;;4.10;99.90;;;;;;5003111;28;20408;-82
2023/01/30 07:15:56;;;;;;;20.20;17.30;;;4.10;99.90;;;;;;5006448;28;20731;-84
2023/01/30 07:18:22;;;;;;;19.40;16.63;;;4.10;99.90;;;;;;5009423;28;20407;-81
2023/01/30 07:20:48;;;;;;;20.33;16.97;;;4.10;99.90;;;;;;5011717;28;20476;-79
2023/01/30 07:23:14;;;;;;;20.23;17.58;;;4.20;99.90;;;;;;5013738;28;20858;-83
2023/01/30 07:25:42;;;;;;;19.83;16.90;;;4.10;99.90;;;;;;5021320;28;20477;-81
2023/01/30 07:28:09;;;;;;;20.55;16.85;;;4.20;99.90;;;;;;5033071;28;20876;-80
2023/01/30 07:30:34;;;;;;;20.02;16.83;;;4.10;99.90;;;;;;5020569;28;20430;-83
2023/01/30 07:33:05;;;;;;;20.98;16.88;;;4.10;99.90;;;;;;5013569;28;20462;-81
2023/01/30 07:35:33;;;;;;;20.50;16.55;;;4.30;99.90;;;;;;5013135;28;20878;-82
2023/01/30 07:37:59;;;;;;;21.60;17.60;;;4.20;99.90;;;;;;5011468;28;20496;-81
2023/01/30 07:40:27;;;;;;;22.13;17.20;;;4.20;99.90;;;;;;5013760;28;20917;-81
2023/01/30 07:43:01;;;;;;;21.50;17.55;;;4.20;99.90;;;;;;5010880;28;20897;-80
2023/01/30 07:45:41;;;;;;;20.95;17.17;;;4.20;99.90;;;;;;5013872;28;20410;-82
2023/01/30 07:48:09;;;;;;;20.83;16.90;;;4.20;99.90;;;;;;4994703;28;20499;-82
2023/01/30 07:50:35;;;;;;;20.45;16.88;;;4.30;99.90;;;;;;5009491;28;21041;-82
2023/01/30 07:53:05;;;;;;;22.42;16.85;;;4.30;99.90;;;;;;5010993;28;20531;-84
2023/01/30 07:55:31;;;;;;;21.92;17.90;;;4.30;99.90;;;;;;5014724;28;20845;-83
2023/01/30 07:57:57;;;;;;;21.55;17.33;;;4.30;99.90;;;;;;5008215;28;20424;-84
2023/01/30 08:00:22;;;;;;;20.50;16.93;;;4.20;99.90;;;;;;5003370;28;20466;-82
2023/01/30 08:02:48;;;;;;;21.87;17.50;;;4.20;99.90;;;;;;5013215;28;20477;-81
2023/01/30 08:05:14;;;;;;;20.10;16.70;;;4.30;99.90;;;;;;5012963;28;20395;-83
2023/01/30 08:07:40;;;;;;;20.65;15.95;;;4.30;99.90;;;;;;5014360;28;20524;-82
2023/01/30 08:10:06;;;;;;;20.03;16.20;;;4.30;99.90;;;;;;5015273;28;20405;-83
2023/01/30 08:12:32;;;;;;;19.33;15.50;;;4.40;99.90;;;;;;5013227;28;20442;-83
2023/01/30 08:14:58;;;;;;;18.03;15.10;;;4.50;99.90;;;;;;5008634;28;20465;-85
2023/01/30 08:17:24;;;;;;;16.73;14.88;;;4.50;99.90;;;;;;5004582;28;20471;-82
2023/01/30 08:19:50;;;;;;;17.27;14.85;;;4.50;99.90;;;;;;4992367;28;20420;-82
2023/01/30 08:22:20;;;;;;;17.07;13.77;;;4.50;99.90;;;;;;5006608;28;20409;-85
2023/01/30 08:24:46;;;;;;;15.20;12.77;;;4.50;99.90;;;;;;4995696;28;20934;-81
2023/01/30 08:27:12;;;;;;;16.30;12.98;;;4.60;99.90;;;;;;4992275;28;20503;-81
2023/01/30 08:29:37;;;;;;;13.38;11.25;;;4.60;99.90;;;;;;4993998;28;20419;-81
2023/01/30 08:32:03;;;;;;;13.43;11.00;;;4.60;99.90;;;;;;4997899;28;20467;-83
2023/01/30 08:34:29;;;;;;;13.85;10.65;;;4.70;99.90;;;;;;5010696;28;20402;-81
2023/01/30 08:36:54;;;;;;;11.43;9.13;;;4.80;99.90;;;;;;5012870;28;20375;-83
2023/01/30 08:39:20;;;;;;;11.63;9.50;;;4.80;99.90;;;;;;4994853;28;20373;-82
2023/01/30 08:41:46;;;;;;;10.40;8.77;;;4.90;99.90;;;;;;5010002;28;20530;-83
2023/01/30 08:44:11;;;;;;;11.15;8.02;;;4.90;99.90;;;;;;5030428;28;20383;-83
2023/01/30 08:46:38;;;;;;;10.85;7.22;;;5.00;99.90;;;;;;5012310;28;20386;-83
2023/01/30 08:49:04;;;;;;;7.15;5.75;;;5.20;99.90;;;;;;5013917;28;20418;-83
2023/01/30 08:51:30;;;;;;;9.00;5.80;;;5.30;99.90;;;;;;5012035;28;20402;-80
2023/01/30 08:53:56;;;;;;;6.97;4.80;;;5.40;99.90;;;;;;5009432;28;20423;-79
2023/01/30 08:56:21;;;;;;;6.93;4.77;;;5.50;99.90;;;;;;5007845;28;20486;-79
2023/01/30 08:58:48;;;;;;;8.32;4.07;;;5.60;99.90;;;;;;5021573;28;20891;-79
2023/01/30 09:01:14;;;;;;;6.13;3.90;;;5.70;99.90;;;;;;5029913;28;20409;-83
2023/01/30 09:03:40;;;;;;;6.55;4.45;;;5.60;99.90;;;;;;5029692;28;20385;-83
2023/01/30 09:06:07;;;;;;;5.35;3.70;;;5.60;99.90;;;;;;5030085;28;20382;-82
2023/01/30 09:08:32;;;;;;;5.43;3.70;;;5.70;99.90;;;;;;5031754;28;20468;-84
2023/01/30 09:11:04;;;;;;;8.20;3.25;;;5.60;99.90;;;;;;5018580;28;20452;-81
2023/01/30 09:13:30;;;;;;;6.85;3.60;;;5.70;99.90;;;;;;5017754;28;20417;-82
2023/01/30 09:15:57;;;;;;;5.00;3.00;;;5.70;99.90;;;;;;5016180;28;20708;-81
2023/01/30 09:18:24;;;;;;;6.15;3.08;;;5.70;99.90;;;;;;5015132;28;20387;-81
2023/01/30 09:20:50;;;;;;;5.72;3.20;;;5.80;99.90;;;;;;5015597;28;20391;-83
2023/01/30 09:23:16;;;;;;;5.78;3.15;;;5.80;99.90;;;;;;5015516;28;20385;-81
2023/01/30 09:25:46;;;;;;;6.05;2.80;;;5.80;99.90;;;;;;5018497;28;20439;-80
2023/01/30 09:28:13;;;;;;;5.93;2.83;;;5.80;99.90;;;;;;5017061;28;20379;-80
2023/01/30 09:30:39;;;;;;;7.85;3.17;;;5.90;99.90;;;;;;5018961;28;20734;-79
2023/01/30 09:33:04;;;;;;;7.30;2.67;;;5.90;99.90;;;;;;5020725;28;20402;-81
2023/01/30 09:35:30;;;;;;;8.07;3.08;;;5.90;99.90;;;;;;5018155;28;20498;-82
2023/01/30 09:37:57;;;;;;;8.77;3.50;;;6.00;99.90;;;;;;5019026;28;20470;-81
2023/01/30 09:40:26;;;;;;;8.13;2.97;;;6.00;99.90;;;;;;5008492;28;20469;-81
2023/01/30 09:43:03;;;;;;;10.10;3.33;;;6.10;99.90;;;;;;5010411;28;20388;-82
2023/01/30 09:45:42;;;;;;;9.15;3.45;;;6.20;99.90;;;;;;5029243;28;20389;-83
2023/01/30 09:48:20;;;;;;;11.65;3.10;;;6.20;99.90;;;;;;5017289;28;20908;-83
2023/01/30 09:51:10;;;;;;;9.83;3.27;;;6.00;99.90;;;;;;5011330;28;20383;-82
2023/01/30 09:53:55;;;;;;;9.10;3.10;;;5.80;99.90;;;;;;5011265;28;20866;-81
2023/01/30 09:56:20;;;;;;;9.95;3.00;;;5.90;99.90;;;;;;5009663;28;20407;-81
2023/01/30 09:59:01;;;;;;;8.77;2.80;;;6.20;99.90;;;;;;5011000;28;20507;-83
2023/01/30 10:01:39;;;;;;;10.35;2.90;;;6.30;99.90;;;;;;5008579;28;20498;-82
2023/01/30 10:04:20;;;;;;;8.93;2.80;;;6.60;99.90;;;;;;5010863;28;20387;-81
2023/01/30 10:07:03;;;;;;;11.50;3.25;;;7.60;99.90;;;;;;5008463;28;20407;-80
2023/01/30 10:09:49;;;;;;;9.85;3.25;;;8.20;99.90;;;;;;5015276;28;20450;-79
2023/01/30 10:12:45;;;;;;;11.32;3.40;;;8.70;99.90;;;;;;5014071;28;20446;-78
2023/01/30 10:15:15;;;;;;;14.60;4.18;;;9.20;99.90;;;;;;5014001;28;20420;-81
2023/01/30 10:17:53;;;;;;;14.82;3.95;;;8.40;99.90;;;;;;5012517;28;20648;-83
2023/01/30 10:20:35;;;;;;;10.25;3.60;;;7.70;99.90;;;;;;5002699;28;20383;-83
2023/01/30 10:23:25;;;;;;;17.73;4.20;;;7.10;99.90;;;;;;5013068;28;20386;-83
2023/01/30 10:25:57;;;;;;;14.35;3.78;;;6.90;99.90;;;;;;5000261;28;20375;-81
2023/01/30 10:28:59;;;;;;;14.97;4.17;;;6.90;99.90;;;;;;5006425;28;20399;-80
2023/01/30 10:31:32;;;;;;;15.68;4.40;;;6.70;99.90;;;;;;4998306;28;20406;-80
2023/01/30 10:34:08;;;;;;;17.45;4.68;;;6.50;99.90;;;;;;5000679;28;20403;-81
2023/01/30 10:37:08;;;;;;;18.88;4.75;;;6.50;99.90;;;;;;4997164;28;20388;-82
2023/01/30 10:40:13;;;;;;;18.50;4.77;;;6.40;99.90;;;;;;4995206;28;20393;-84
2023/01/30 10:42:57;;;;;;;18.75;4.60;;;6.40;99.90;;;;;;4989251;28;20385;-81
2023/01/30 10:45:36;;;;;;;17.48;4.22;;;6.20;99.90;;;;;;4990695;28;20381;-81
2023/01/30 10:48:09;;;;;;;15.20;4.45;;;6.50;99.90;;;;;;4996699;28;20467;-81
2023/01/30 10:50:51;;;;;;;19.85;4.55;;;6.40;99.90;;;;;;5005269;28;20724;-83
2023/01/30 10:53:21;;;;;;;17.67;4.45;;;6.40;99.90;;;;;;5010730;28;20402;-81
2023/01/30 10:55:57;;;;;;;19.52;4.72;;;6.40;99.90;;;;;;5009210;28;20873;-82
2023/01/30 10:58:50;;;;;;;17.20;4.32;;;6.40;99.90;;;;;;5007923;28;20398;-82
2023/01/30 11:01:25;;;;;;;16.73;4.85;;;6.70;99.90;;;;;;5020547;28;20877;-83
2023/01/30 11:04:02;;;;;;;18.30;4.85;;;6.90;99.90;;;;;;5023717;28;20415;-83
2023/01/30 11:06:30;;;;;;;15.65;4.13;;;7.40;99.90;;;;;;4998564;28;20479;-80
2023/01/30 11:08:56;;;;;;;17.33;5.18;;;7.50;99.90;;;;;;4993977;28;20379;-81
2023/01/30 11:11:33;;;;;;;17.50;4.70;;;7.30;99.90;;;;;;4992916;28;20389;-83
2023/01/30 11:14:02;;;;;;;18.83;4.75;;;7.30;99.90;;;;;;4990562;28;20475;-85
2023/01/30 11:16:29;;;;;;;19.70;5.17;;;7.50;99.90;;;;;;4990561;28;20481;-83
2023/01/30 11:18:58;;;;;;;21.80;5.47;;;7.10;99.90;;;;;;4990311;28;20439;-82
2023/01/30 11:21:30;;;;;;;21.52;5.30;;;7.30;99.90;;;;;;4989206;28;20748;-83
2023/01/30 11:24:02;;;;;;;17.48;4.63;;;7.30;99.90;;;;;;4989345;28;20404;-82
2023/01/30 11:26:35;;;;;;;17.02;4.55;;;7.40;99.90;;;;;;4990700;28;20417;-82
2023/01/30 11:29:24;;;;;;;19.80;5.38;;;7.20;99.90;;;;;;4990363;28;20566;-82
2023/01/30 11:31:53;;;;;;;14.90;4.70;;;6.50;99.90;;;;;;4990294;28;20369;-83
2023/01/30 11:34:21;;;;;;;9.98;3.42;;;6.10;99.90;;;;;;4988189;28;20447;-82
2023/01/30 11:36:47;;;;;;;8.53;3.07;;;5.80;99.90;;;;;;4990746;28;20376;-82
2023/01/30 11:39:14;;;;;;;11.00;3.05;;;5.20;99.90;;;;;;4992380;28;20412;-83
2023/01/30 11:42:03;;;;;;;11.82;3.13;;;5.10;99.90;;;;;;4993564;28;20448;-83
2023/01/30 11:44:33;;;;;;;13.48;3.95;;;5.00;99.90;;;;;;4992608;28;20411;-82
2023/01/30 11:47:07;;;;;;;13.35;3.55;;;4.90;99.90;;;;;;4990270;28;20878;-82
2023/01/30 11:49:42;;;;;;;14.82;3.95;;;5.00;99.90;;;;;;4991599;28;20439;-81
2023/01/30 11:52:08;;;;;;;19.13;4.68;;;4.80;99.90;;;;;;4990266;28;20416;-80
2023/01/30 11:54:38;;;;;;;13.73;3.97;;;4.80;99.90;;;;;;4990990;28;20409;-81
2023/01/30 11:57:09;;;;;;;11.33;3.77;;;4.70;99.90;;;;;;4989377;28;20432;-82
2023/01/30 11:59:48;;;;;;;13.30;4.23;;;4.80;99.90;;;;;;4989563;28;20494;-82
2023/01/30 12:02:30;;;;;;;17.53;4.60;;;4.90;99.90;;;;;;4990063;28;20431;-81
2023/01/30 12:05:17;;;;;;;18.50;4.70;;;5.00;99.90;;;;;;4989993;28;20392;-82
2023/01/30 12:07:47;;;;;;;20.53;5.70;;;5.10;99.90;;;;;;4989827;28;20389;-82
2023/01/30 12:10:41;;;;;;;22.17;5.13;;;5.40;99.90;;;;;;4996921;28;20742;-82
2023/01/30 12:13:19;;;;;;;20.10;5.10;;;5.90;99.90;;;;;;5009089;28;20801;-83
2023/01/30 12:15:51;;;;;;;15.27;4.70;;;6.30;99.90;;;;;;5008530;28;20473;-83
2023/01/30 12:18:28;;;;;;;18.08;4.85;;;6.70;99.90;;;;;;5007160;28;20445;-83
2023/01/30 12:21:22;;;;;;;17.15;5.45;;;7.00;99.90;;;;;;5009604;28;20454;-83
2023/01/30 12:24:10;;;;;;;18.20;4.53;;;6.80;99.90;;;;;;5008282;28;20486;-82
2023/01/30 12:26:48;;;;;;;17.90;4.97;;;6.90;99.90;;;;;;4989759;28;20417;-81
2023/01/30 12:29:20;;;;;;;16.52;4.72;;;6.90;99.90;;;;;;4991415;28;20385;-81
2023/01/30 12:31:50;;;;;;;14.97;4.57;;;7.10;99.90;;;;;;4990941;28;20408;-82
2023/01/30 12:34:16;;;;;;;16.55;5.13;;;7.30;99.90;;;;;;4987929;28;20973;-82
2023/01/30 12:36:54;;;;;;;15.52;4.47;;;7.60;99.90;;;;;;4989390;28;20405;-81
2023/01/30 12:39:44;;;;;;;19.27;5.03;;;7.60;99.90;;;;;;4990029;28;20444;-81
2023/01/30 12:42:28;;;;;;;15.77;4.30;;;7.60;99.90;;;;;;4989912;28;20581;-82
2023/01/30 12:45:15;;;;;;;13.45;4.53;;;7.60;99.90;;;;;;5006379;28;20827;-81
2023/01/30 12:48:02;;;;;;;14.15;4.50;;;7.60;99.90;;;;;;4996129;28;20389;-82
2023/01/30 12:50:53;;;;;;;12.90;3.95;;;7.20;99.90;;;;;;4996766;28;20423;-81
2023/01/30 12:53:22;;;;;;;13.88;4.25;;;7.10;99.90;;;;;;5009371;28;20482;-82
2023/01/30 12:56:23;;;;;;;13.00;4.32;;;7.00;99.90;;;;;;5015479;28;20900;-82
2023/01/30 12:59:04;;;;;;;12.57;4.45;;;6.90;99.90;;;;;;5015954;28;20494;-82
2023/01/30 13:01:49;;;;;;;16.50;4.55;;;6.90;99.90;;;;;;5017445;28;20426;-82
2023/01/30 13:04:41;;;;;;;13.45;3.88;;;6.90;99.90;;;;;;5015159;28;20398;-82
2023/01/30 13:07:21;;;;;;;13.20;4.40;;;6.80;99.90;;;;;;5006532;28;20494;-84